Estación Meteorológica Peña el Pijo (Robertgarden) [ 09/28/20 20:53:16 CEST ]

Fecha Hora Presion(HPa) Temp (°C) Humedad % Rocio (°C) Viento ( m/s) Direccion Lluvia 1Hora(mm) Lluvia 24H(mm) LLuvia Total(mm)
2020-Sep-28 01:09:31 1008.600 10.1 68 4.4 - N     89.61
2020-Sep-28 02:09:28 1008.600 9.1 71 4.1 - N     89.61
2020-Sep-28 03:09:09 1008.800 8.4 72 3.6 - N     89.61
2020-Sep-28 04:09:25 1008.200 8.1 74 3.8 - N     89.61
2020-Sep-28 05:09:15 1008.000 7.8 75 3.6 - N     89.61
2020-Sep-28 06:09:39 1008.100 6.6 78 3.0 - N     89.61
2020-Sep-28 07:10:11 1008.100 6.2 80 3.0 - N     89.61
2020-Sep-28 08:09:16 1008.900 6.1 80 2.9 - N     89.61
2020-Sep-28 09:09:06 1008.900 9.1 79 4.2 - N     89.61
2020-Sep-28 10:09:21 1008.900 17.8 50 7.2 - N     89.61
2020-Sep-28 11:09:38 1009.200 21.5 34 4.9 - N     89.61
2020-Sep-28 12:09:56 1009.100 23.9 24 1.9 - N     89.61
2020-Sep-28 13:09:35 1009.100 25.4 21 1.4 - N     89.61
2020-Sep-28 14:09:30 1008.800 24.9 18 -1.4 - N     89.61
2020-Sep-28 15:09:40 1008.100 25.4 17 -2.0 - N     89.61
2020-Sep-28 16:09:24 1007.600 25.8 18 -0.7 - N     89.61
2020-Sep-28 17:09:19 1007.400 25.1 18 -1.3 - N     89.61
2020-Sep-28 18:09:49 1007.500 23.8 20 -0.5 - N     89.61
2020-Sep-28 19:09:20 1007.800 21.9 24 0.2 - N     89.61
2020-Sep-28 20:09:31 1009.000 19.1 34 2.8 - N     89.61

Temperatura Máxima:25°    Temperatura Mínima:
Presión Máxima:1009.200 Hpa    Presión Mínima:1007.400 Hpa


Volver